sensor_id;sensor_type;location;lat;lon;timestamp;pressure;altitude;pressure_sealevel;temperature;humidity
26376;BME280;30544;42.196;24.336;2023-04-10T00:00:31;99338.50;;;13.38;nan
26376;BME280;30544;42.196;24.336;2023-04-10T00:02:58;99338.19;;;13.34;nan
26376;BME280;30544;42.196;24.336;2023-04-10T00:05:26;99337.34;;;13.34;nan
26376;BME280;30544;42.196;24.336;2023-04-10T00:07:53;99335.09;;;13.31;nan
26376;BME280;30544;42.196;24.336;2023-04-10T00:10:23;99336.50;;;13.33;nan
26376;BME280;30544;42.196;24.336;2023-04-10T00:12:50;99327.25;;;13.28;nan
26376;BME280;30544;42.196;24.336;2023-04-10T00:15:19;99328.59;;;13.25;nan
26376;BME280;30544;42.196;24.336;2023-04-10T00:17:46;99325.69;;;13.15;nan
26376;BME280;30544;42.196;24.336;2023-04-10T00:20:15;99324.72;;;12.77;nan
26376;BME280;30544;42.196;24.336;2023-04-10T00:22:41;99317.38;;;12.49;nan
26376;BME280;30544;42.196;24.336;2023-04-10T00:25:08;99318.13;;;12.61;nan
26376;BME280;30544;42.196;24.336;2023-04-10T00:27:35;99313.88;;;12.59;nan
26376;BME280;30544;42.196;24.336;2023-04-10T00:30:03;99317.38;;;12.71;nan
26376;BME280;30544;42.196;24.336;2023-04-10T00:32:31;99303.69;;;12.64;nan
26376;BME280;30544;42.196;24.336;2023-04-10T00:34:58;99296.75;;;12.67;nan
26376;BME280;30544;42.196;24.336;2023-04-10T00:37:25;99291.88;;;12.35;nan
26376;BME280;30544;42.196;24.336;2023-04-10T00:39:53;99290.72;;;12.31;nan
26376;BME280;30544;42.196;24.336;2023-04-10T00:42:19;99291.47;;;12.44;nan
26376;BME280;30544;42.196;24.336;2023-04-10T00:44:46;99291.31;;;12.55;nan
26376;BME280;30544;42.196;24.336;2023-04-10T00:47:13;99300.28;;;12.41;nan
26376;BME280;30544;42.196;24.336;2023-04-10T00:49:42;99293.13;;;12.45;nan
26376;BME280;30544;42.196;24.336;2023-04-10T00:52:09;99283.44;;;12.47;nan
26376;BME280;30544;42.196;24.336;2023-04-10T00:54:36;99279.09;;;12.34;nan
26376;BME280;30544;42.196;24.336;2023-04-10T00:57:03;99283.97;;;12.05;nan
26376;BME280;30544;42.196;24.336;2023-04-10T00:59:30;99281.44;;;12.04;nan
26376;BME280;30544;42.196;24.336;2023-04-10T01:01:57;99284.38;;;12.14;nan
26376;BME280;30544;42.196;24.336;2023-04-10T01:04:25;99281.00;;;12.12;nan
26376;BME280;30544;42.196;24.336;2023-04-10T01:06:57;99281.66;;;12.19;nan
26376;BME280;30544;42.196;24.336;2023-04-10T01:09:37;99275.94;;;12.09;nan
26376;BME280;30544;42.196;24.336;2023-04-10T01:12:20;99275.81;;;11.99;nan
26376;BME280;30544;42.196;24.336;2023-04-10T01:14:57;99278.53;;;11.94;nan
26376;BME280;30544;42.196;24.336;2023-04-10T01:17:34;99279.34;;;11.78;nan
26376;BME280;30544;42.196;24.336;2023-04-10T01:20:09;99279.09;;;11.62;nan
26376;BME280;30544;42.196;24.336;2023-04-10T01:22:48;99284.75;;;11.67;nan
26376;BME280;30544;42.196;24.336;2023-04-10T01:25:39;99276.16;;;11.52;nan
26376;BME280;30544;42.196;24.336;2023-04-10T01:28:20;99279.38;;;11.44;nan
26376;BME280;30544;42.196;24.336;2023-04-10T01:30:51;99271.44;;;11.36;nan
26376;BME280;30544;42.196;24.336;2023-04-10T01:33:20;99278.34;;;11.50;nan
26376;BME280;30544;42.196;24.336;2023-04-10T01:35:51;99272.22;;;11.48;nan
26376;BME280;30544;42.196;24.336;2023-04-10T01:38:20;99276.41;;;11.34;nan
26376;BME280;30544;42.196;24.336;2023-04-10T01:40:51;99275.94;;;11.08;nan
26376;BME280;30544;42.196;24.336;2023-04-10T01:43:19;99271.59;;;11.12;nan
26376;BME280;30544;42.196;24.336;2023-04-10T01:45:50;99276.09;;;11.02;nan
26376;BME280;30544;42.196;24.336;2023-04-10T01:48:17;99279.00;;;10.78;nan
26376;BME280;30544;42.196;24.336;2023-04-10T01:50:45;99271.41;;;11.02;nan
26376;BME280;30544;42.196;24.336;2023-04-10T01:53:13;99266.44;;;11.04;nan
26376;BME280;30544;42.196;24.336;2023-04-10T01:55:41;99275.38;;;10.38;nan
26376;BME280;30544;42.196;24.336;2023-04-10T01:58:09;99273.44;;;10.50;nan
26376;BME280;30544;42.196;24.336;2023-04-10T02:00:37;99286.84;;;10.41;nan
26376;BME280;30544;42.196;24.336;2023-04-10T02:03:05;99280.09;;;10.37;nan
26376;BME280;30544;42.196;24.336;2023-04-10T02:05:47;99268.03;;;10.43;nan
26376;BME280;30544;42.196;24.336;2023-04-10T02:08:24;99284.81;;;10.13;nan
26376;BME280;30544;42.196;24.336;2023-04-10T02:10:56;99273.47;;;10.15;nan
26376;BME280;30544;42.196;24.336;2023-04-10T02:13:25;99274.06;;;10.17;nan
26376;BME280;30544;42.196;24.336;2023-04-10T02:15:54;99271.84;;;10.54;nan
26376;BME280;30544;42.196;24.336;2023-04-10T02:18:24;99265.25;;;10.72;nan
26376;BME280;30544;42.196;24.336;2023-04-10T02:20:53;99271.53;;;10.79;nan
26376;BME280;30544;42.196;24.336;2023-04-10T02:23:21;99269.66;;;10.84;nan
26376;BME280;30544;42.196;24.336;2023-04-10T02:25:48;99261.97;;;10.75;nan
26376;BME280;30544;42.196;24.336;2023-04-10T02:28:15;99262.22;;;10.73;nan
26376;BME280;30544;42.196;24.336;2023-04-10T02:30:42;99269.91;;;10.83;nan
26376;BME280;30544;42.196;24.336;2023-04-10T02:33:08;99264.97;;;10.85;nan
26376;BME280;30544;42.196;24.336;2023-04-10T02:35:37;99266.47;;;10.76;nan
26376;BME280;30544;42.196;24.336;2023-04-10T02:38:04;99259.53;;;10.62;nan
26376;BME280;30544;42.196;24.336;2023-04-10T02:40:31;99260.03;;;10.59;nan
26376;BME280;30544;42.196;24.336;2023-04-10T02:42:57;99259.56;;;10.78;nan
26376;BME280;30544;42.196;24.336;2023-04-10T02:45:24;99255.47;;;10.81;nan
26376;BME280;30544;42.196;24.336;2023-04-10T02:47:51;99254.16;;;10.72;nan
26376;BME280;30544;42.196;24.336;2023-04-10T02:50:18;99260.59;;;10.89;nan
26376;BME280;30544;42.196;24.336;2023-04-10T02:52:46;99256.31;;;10.81;nan
26376;BME280;30544;42.196;24.336;2023-04-10T02:55:12;99263.56;;;10.71;nan
26376;BME280;30544;42.196;24.336;2023-04-10T02:57:40;99264.28;;;10.78;nan
26376;BME280;30544;42.196;24.336;2023-04-10T03:00:09;99257.16;;;10.82;nan
26376;BME280;30544;42.196;24.336;2023-04-10T03:02:36;99249.41;;;10.84;nan
26376;BME280;30544;42.196;24.336;2023-04-10T03:05:03;99260.94;;;10.76;nan
26376;BME280;30544;42.196;24.336;2023-04-10T03:07:30;99257.22;;;10.87;nan
26376;BME280;30544;42.196;24.336;2023-04-10T03:09:59;99252.53;;;10.88;nan
26376;BME280;30544;42.196;24.336;2023-04-10T03:12:26;99246.47;;;10.91;nan
26376;BME280;30544;42.196;24.336;2023-04-10T03:14:53;99250.72;;;10.93;nan
26376;BME280;30544;42.196;24.336;2023-04-10T03:17:20;99246.63;;;10.84;nan
26376;BME280;30544;42.196;24.336;2023-04-10T03:19:46;99248.53;;;10.95;nan
26376;BME280;30544;42.196;24.336;2023-04-10T03:22:13;99248.09;;;11.03;nan
26376;BME280;30544;42.196;24.336;2023-04-10T03:24:40;99253.78;;;10.80;nan
26376;BME280;30544;42.196;24.336;2023-04-10T03:27:08;99253.78;;;10.80;nan
26376;BME280;30544;42.196;24.336;2023-04-10T03:29:35;99258.81;;;10.83;nan
26376;BME280;30544;42.196;24.336;2023-04-10T03:32:01;99261.84;;;10.81;nan
26376;BME280;30544;42.196;24.336;2023-04-10T03:34:28;99258.66;;;10.90;nan
26376;BME280;30544;42.196;24.336;2023-04-10T03:36:55;99253.69;;;10.92;nan
26376;BME280;30544;42.196;24.336;2023-04-10T03:39:22;99262.78;;;10.87;nan
26376;BME280;30544;42.196;24.336;2023-04-10T03:41:49;99253.69;;;10.92;nan
26376;BME280;30544;42.196;24.336;2023-04-10T03:44:17;99259.25;;;10.92;nan
26376;BME280;30544;42.196;24.336;2023-04-10T03:46:43;99267.53;;;11.03;nan
26376;BME280;30544;42.196;24.336;2023-04-10T03:49:10;99253.06;;;11.01;nan
26376;BME280;30544;42.196;24.336;2023-04-10T03:51:37;99259.69;;;11.00;nan
26376;BME280;30544;42.196;24.336;2023-04-10T03:54:04;99265.69;;;10.92;nan
26376;BME280;30544;42.196;24.336;2023-04-10T03:56:30;99260.41;;;10.79;nan
26376;BME280;30544;42.196;24.336;2023-04-10T03:58:57;99258.03;;;10.71;nan
26376;BME280;30544;42.196;24.336;2023-04-10T04:01:25;99268.78;;;10.67;nan
26376;BME280;30544;42.196;24.336;2023-04-10T04:03:52;99264.22;;;10.61;nan
26376;BME280;30544;42.196;24.336;2023-04-10T04:06:19;99264.16;;;10.73;nan
26376;BME280;30544;42.196;24.336;2023-04-10T04:08:45;99258.91;;;10.88;nan
26376;BME280;30544;42.196;24.336;2023-04-10T04:11:12;99264.31;;;10.95;nan
26376;BME280;30544;42.196;24.336;2023-04-10T04:13:39;99263.59;;;11.16;nan
26376;BME280;30544;42.196;24.336;2023-04-10T04:16:07;99260.06;;;11.21;nan
26376;BME280;30544;42.196;24.336;2023-04-10T04:18:35;99253.59;;;11.15;nan
26376;BME280;30544;42.196;24.336;2023-04-10T04:21:02;99254.44;;;11.15;nan
26376;BME280;30544;42.196;24.336;2023-04-10T04:23:29;99261.97;;;11.03;nan
26376;BME280;30544;42.196;24.336;2023-04-10T04:25:56;99256.72;;;10.90;nan
26376;BME280;30544;42.196;24.336;2023-04-10T04:28:23;99259.25;;;10.92;nan
26376;BME280;30544;42.196;24.336;2023-04-10T04:30:50;99258.78;;;10.95;nan
26376;BME280;30544;42.196;24.336;2023-04-10T04:33:17;99266.16;;;10.89;nan
26376;BME280;30544;42.196;24.336;2023-04-10T04:35:45;99263.78;;;11.09;nan
26376;BME280;30544;42.196;24.336;2023-04-10T04:38:12;99267.56;;;11.20;nan
26376;BME280;30544;42.196;24.336;2023-04-10T04:40:41;99264.25;;;11.23;nan
26376;BME280;30544;42.196;24.336;2023-04-10T04:43:07;99260.41;;;11.24;nan
26376;BME280;30544;42.196;24.336;2023-04-10T04:45:34;99259.31;;;11.25;nan
26376;BME280;30544;42.196;24.336;2023-04-10T04:48:01;99261.34;;;11.47;nan
26376;BME280;30544;42.196;24.336;2023-04-10T04:50:28;99261.75;;;11.55;nan
26376;BME280;30544;42.196;24.336;2023-04-10T04:52:56;99263.63;;;11.33;nan
26376;BME280;30544;42.196;24.336;2023-04-10T04:55:24;99260.50;;;11.29;nan
26376;BME280;30544;42.196;24.336;2023-04-10T04:57:51;99260.66;;;11.39;nan
26376;BME280;30544;42.196;24.336;2023-04-10T05:00:18;99260.91;;;11.55;nan
26376;BME280;30544;42.196;24.336;2023-04-10T05:02:45;99265.28;;;11.34;nan
26376;BME280;30544;42.196;24.336;2023-04-10T05:05:12;99268.41;;;11.54;nan
26376;BME280;30544;42.196;24.336;2023-04-10T05:07:38;99272.59;;;11.73;nan
26376;BME280;30544;42.196;24.336;2023-04-10T05:10:07;99266.41;;;11.83;nan
26376;BME280;30544;42.196;24.336;2023-04-10T05:12:34;99274.66;;;11.61;nan
26376;BME280;30544;42.196;24.336;2023-04-10T05:15:02;99269.25;;;11.88;nan
26376;BME280;30544;42.196;24.336;2023-04-10T05:17:29;99272.81;;;11.84;nan
26376;BME280;30544;42.196;24.336;2023-04-10T05:19:56;99278.66;;;11.70;nan
26376;BME280;30544;42.196;24.336;2023-04-10T05:22:22;99276.84;;;11.93;nan
26376;BME280;30544;42.196;24.336;2023-04-10T05:24:49;99273.94;;;12.04;nan
26376;BME280;30544;42.196;24.336;2023-04-10T05:27:17;99277.56;;;12.05;nan
26376;BME280;30544;42.196;24.336;2023-04-10T05:29:44;99277.13;;;12.13;nan
26376;BME280;30544;42.196;24.336;2023-04-10T05:32:11;99276.34;;;11.79;nan
26376;BME280;30544;42.196;24.336;2023-04-10T05:34:37;99277.56;;;12.05;nan
26376;BME280;30544;42.196;24.336;2023-04-10T05:37:04;99281.66;;;11.81;nan
26376;BME280;30544;42.196;24.336;2023-04-10T05:39:31;99290.13;;;11.91;nan
26376;BME280;30544;42.196;24.336;2023-04-10T05:41:58;99282.38;;;12.10;nan
26376;BME280;30544;42.196;24.336;2023-04-10T05:44:26;99287.38;;;12.29;nan
26376;BME280;30544;42.196;24.336;2023-04-10T05:46:53;99290.75;;;11.93;nan
26376;BME280;30544;42.196;24.336;2023-04-10T05:49:20;99286.72;;;12.05;nan
26376;BME280;30544;42.196;24.336;2023-04-10T05:51:46;99284.44;;;12.19;nan
26376;BME280;30544;42.196;24.336;2023-04-10T05:54:14;99289.63;;;12.32;nan
26376;BME280;30544;42.196;24.336;2023-04-10T05:56:41;99295.41;;;12.48;nan
26376;BME280;30544;42.196;24.336;2023-04-10T05:59:08;99296.63;;;12.57;nan
26376;BME280;30544;42.196;24.336;2023-04-10T06:01:36;99287.25;;;12.63;nan
26376;BME280;30544;42.196;24.336;2023-04-10T06:04:03;99280.00;;;12.62;nan
26376;BME280;30544;42.196;24.336;2023-04-10T06:06:30;99279.22;;;12.67;nan
26376;BME280;30544;42.196;24.336;2023-04-10T06:08:57;99278.63;;;12.64;nan
26376;BME280;30544;42.196;24.336;2023-04-10T06:11:24;99279.88;;;12.52;nan
26376;BME280;30544;42.196;24.336;2023-04-10T06:13:51;99274.31;;;12.52;nan
26376;BME280;30544;42.196;24.336;2023-04-10T06:16:18;99270.94;;;12.50;nan
26376;BME280;30544;42.196;24.336;2023-04-10T06:18:47;99282.44;;;12.58;nan
26376;BME280;30544;42.196;24.336;2023-04-10T06:21:16;99276.75;;;12.70;nan
26376;BME280;30544;42.196;24.336;2023-04-10T06:23:43;99272.09;;;13.03;nan
26376;BME280;30544;42.196;24.336;2023-04-10T06:26:10;99263.34;;;13.16;nan
26376;BME280;30544;42.196;24.336;2023-04-10T06:28:37;99266.84;;;13.28;nan
26376;BME280;30544;42.196;24.336;2023-04-10T06:31:05;99257.41;;;13.34;nan
26376;BME280;30544;42.196;24.336;2023-04-10T06:33:32;99262.13;;;13.34;nan
26376;BME280;30544;42.196;24.336;2023-04-10T06:36:01;99272.59;;;13.48;nan
26376;BME280;30544;42.196;24.336;2023-04-10T06:38:28;99273.72;;;13.52;nan
26376;BME280;30544;42.196;24.336;2023-04-10T06:40:55;99279.06;;;13.59;nan
26376;BME280;30544;42.196;24.336;2023-04-10T06:43:22;99282.06;;;13.52;nan
26376;BME280;30544;42.196;24.336;2023-04-10T06:45:49;99274.41;;;13.70;nan
26376;BME280;30544;42.196;24.336;2023-04-10T06:48:16;99269.28;;;13.94;nan
26376;BME280;30544;42.196;24.336;2023-04-10T06:50:43;99268.63;;;14.24;nan
26376;BME280;30544;42.196;24.336;2023-04-10T06:53:11;99274.22;;;14.24;nan
26376;BME280;30544;42.196;24.336;2023-04-10T06:55:37;99282.19;;;14.47;nan
26376;BME280;30544;42.196;24.336;2023-04-10T06:58:04;99273.34;;;14.70;nan
26376;BME280;30544;42.196;24.336;2023-04-10T07:00:31;99276.19;;;14.81;nan
26376;BME280;30544;42.196;24.336;2023-04-10T07:02:58;99265.59;;;14.93;nan
26376;BME280;30544;42.196;24.336;2023-04-10T07:05:24;99274.56;;;15.05;nan
26376;BME280;30544;42.196;24.336;2023-04-10T07:07:51;99270.97;;;15.20;nan
26376;BME280;30544;42.196;24.336;2023-04-10T07:10:20;99263.72;;;15.24;nan
26376;BME280;30544;42.196;24.336;2023-04-10T07:12:46;99278.56;;;15.34;nan
26376;BME280;30544;42.196;24.336;2023-04-10T07:15:13;99276.94;;;15.69;nan
26376;BME280;30544;42.196;24.336;2023-04-10T07:17:40;99268.53;;;15.79;nan
26376;BME280;30544;42.196;24.336;2023-04-10T07:20:08;99284.72;;;16.18;nan
26376;BME280;30544;42.196;24.336;2023-04-10T07:22:35;99272.41;;;16.09;nan
26376;BME280;30544;42.196;24.336;2023-04-10T07:25:05;99280.16;;;16.42;nan
26376;BME280;30544;42.196;24.336;2023-04-10T07:27:33;99268.91;;;16.58;nan
26376;BME280;30544;42.196;24.336;2023-04-10T07:30:00;99272.19;;;16.85;nan
26376;BME280;30544;42.196;24.336;2023-04-10T07:32:27;99270.59;;;17.18;nan
26376;BME280;30544;42.196;24.336;2023-04-10T07:34:53;99270.22;;;17.30;nan
26376;BME280;30544;42.196;24.336;2023-04-10T07:37:20;99280.50;;;17.44;nan
26376;BME280;30544;42.196;24.336;2023-04-10T07:39:47;99273.66;;;17.22;nan
26376;BME280;30544;42.196;24.336;2023-04-10T07:42:13;99268.09;;;17.11;nan
26376;BME280;30544;42.196;24.336;2023-04-10T07:44:42;99270.06;;;17.16;nan
26376;BME280;30544;42.196;24.336;2023-04-10T07:47:08;99263.63;;;17.16;nan
26376;BME280;30544;42.196;24.336;2023-04-10T07:49:35;99270.69;;;17.47;nan
26376;BME280;30544;42.196;24.336;2023-04-10T07:52:05;99272.63;;;17.52;nan
26376;BME280;30544;42.196;24.336;2023-04-10T07:54:32;99266.16;;;17.51;nan
26376;BME280;30544;42.196;24.336;2023-04-10T07:56:59;99269.13;;;17.26;nan
26376;BME280;30544;42.196;24.336;2023-04-10T07:59:26;99272.56;;;17.18;nan
26376;BME280;30544;42.196;24.336;2023-04-10T08:01:54;99266.22;;;17.41;nan
26376;BME280;30544;42.196;24.336;2023-04-10T08:04:21;99264.38;;;17.65;nan
26376;BME280;30544;42.196;24.336;2023-04-10T08:06:48;99268.19;;;17.80;nan
26376;BME280;30544;42.196;24.336;2023-04-10T08:09:16;99262.84;;;17.83;nan
26376;BME280;30544;42.196;24.336;2023-04-10T08:11:42;99258.47;;;18.01;nan
26376;BME280;30544;42.196;24.336;2023-04-10T08:14:09;99257.66;;;18.24;nan
26376;BME280;30544;42.196;24.336;2023-04-10T08:16:37;99257.88;;;18.28;nan
26376;BME280;30544;42.196;24.336;2023-04-10T08:19:06;99253.47;;;18.22;nan
26376;BME280;30544;42.196;24.336;2023-04-10T08:21:33;99252.78;;;18.06;nan
26376;BME280;30544;42.196;24.336;2023-04-10T08:24:01;99249.28;;;18.19;nan
26376;BME280;30544;42.196;24.336;2023-04-10T08:26:28;99248.31;;;18.05;nan
26376;BME280;30544;42.196;24.336;2023-04-10T08:28:57;99251.50;;;18.22;nan
26376;BME280;30544;42.196;24.336;2023-04-10T08:31:26;99244.75;;;17.99;nan
26376;BME280;30544;42.196;24.336;2023-04-10T08:33:53;99242.19;;;18.03;nan
26376;BME280;30544;42.196;24.336;2023-04-10T08:36:22;99247.63;;;18.18;nan
26376;BME280;30544;42.196;24.336;2023-04-10T08:38:48;99245.72;;;18.38;nan
26376;BME280;30544;42.196;24.336;2023-04-10T08:41:16;99241.31;;;18.31;nan
26376;BME280;30544;42.196;24.336;2023-04-10T08:43:43;99237.53;;;18.41;nan
26376;BME280;30544;42.196;24.336;2023-04-10T08:46:11;99235.31;;;18.62;nan
26376;BME280;30544;42.196;24.336;2023-04-10T08:48:45;99229.88;;;18.47;nan
26376;BME280;30544;42.196;24.336;2023-04-10T08:51:14;99232.94;;;18.50;nan
26376;BME280;30544;42.196;24.336;2023-04-10T08:53:44;99222.41;;;18.61;nan
26376;BME280;30544;42.196;24.336;2023-04-10T08:56:12;99224.44;;;18.55;nan
26376;BME280;30544;42.196;24.336;2023-04-10T08:58:40;99221.66;;;18.31;nan
26376;BME280;30544;42.196;24.336;2023-04-10T09:01:08;99234.47;;;18.61;nan
26376;BME280;30544;42.196;24.336;2023-04-10T09:03:36;99224.09;;;18.86;nan
26376;BME280;30544;42.196;24.336;2023-04-10T09:06:03;99220.44;;;19.04;nan
26376;BME280;30544;42.196;24.336;2023-04-10T09:08:31;99214.69;;;19.33;nan
26376;BME280;30544;42.196;24.336;2023-04-10T09:10:59;99199.75;;;19.51;nan
26376;BME280;30544;42.196;24.336;2023-04-10T09:13:36;99202.56;;;19.51;nan
26376;BME280;30544;42.196;24.336;2023-04-10T09:16:04;99208.72;;;19.53;nan
26376;BME280;30544;42.196;24.336;2023-04-10T09:18:44;99204.59;;;19.46;nan
26376;BME280;30544;42.196;24.336;2023-04-10T09:21:14;99192.91;;;19.39;nan
26376;BME280;30544;42.196;24.336;2023-04-10T09:23:42;99202.97;;;19.26;nan
26376;BME280;30544;42.196;24.336;2023-04-10T09:26:23;99193.47;;;19.22;nan
26376;BME280;30544;42.196;24.336;2023-04-10T09:29:01;99199.56;;;18.91;nan
26376;BME280;30544;42.196;24.336;2023-04-10T09:31:32;99197.19;;;18.80;nan
26376;BME280;30544;42.196;24.336;2023-04-10T09:34:08;99197.47;;;18.78;nan
26376;BME280;30544;42.196;24.336;2023-04-10T09:36:34;99189.38;;;18.53;nan
26376;BME280;30544;42.196;24.336;2023-04-10T09:39:02;99202.75;;;18.61;nan
26376;BME280;30544;42.196;24.336;2023-04-10T09:41:30;99195.31;;;18.27;nan
26376;BME280;30544;42.196;24.336;2023-04-10T09:44:05;99192.56;;;18.22;nan
26376;BME280;30544;42.196;24.336;2023-04-10T09:46:32;99190.59;;;18.23;nan
26376;BME280;30544;42.196;24.336;2023-04-10T09:48:59;99197.41;;;18.17;nan
26376;BME280;30544;42.196;24.336;2023-04-10T09:51:31;99193.94;;;18.01;nan
26376;BME280;30544;42.196;24.336;2023-04-10T09:53:59;99188.97;;;17.64;nan
26376;BME280;30544;42.196;24.336;2023-04-10T09:56:27;99201.44;;;17.08;nan
26376;BME280;30544;42.196;24.336;2023-04-10T09:58:57;99190.28;;;16.49;nan
26376;BME280;30544;42.196;24.336;2023-04-10T10:01:25;99194.16;;;16.63;nan
26376;BME280;30544;42.196;24.336;2023-04-10T10:03:53;99191.03;;;15.95;nan
26376;BME280;30544;42.196;24.336;2023-04-10T10:06:20;99197.47;;;15.90;nan
26376;BME280;30544;42.196;24.336;2023-04-10T10:08:48;99196.16;;;15.62;nan
26376;BME280;30544;42.196;24.336;2023-04-10T10:11:18;99190.81;;;15.15;nan
26376;BME280;30544;42.196;24.336;2023-04-10T10:13:49;99197.78;;;15.53;nan
26376;BME280;30544;42.196;24.336;2023-04-10T10:16:20;99200.88;;;15.52;nan
26376;BME280;30544;42.196;24.336;2023-04-10T10:18:54;99191.41;;;15.63;nan
26376;BME280;30544;42.196;24.336;2023-04-10T10:21:25;99186.34;;;15.70;nan
26376;BME280;30544;42.196;24.336;2023-04-10T10:23:54;99181.88;;;15.64;nan
26376;BME280;30544;42.196;24.336;2023-04-10T10:26:22;99182.41;;;15.76;nan
26376;BME280;30544;42.196;24.336;2023-04-10T10:28:50;99183.00;;;15.63;nan
26376;BME280;30544;42.196;24.336;2023-04-10T10:31:18;99181.28;;;15.87;nan
26376;BME280;30544;42.196;24.336;2023-04-10T10:33:46;99177.41;;;15.68;nan
26376;BME280;30544;42.196;24.336;2023-04-10T10:36:14;99181.22;;;16.03;nan
26376;BME280;30544;42.196;24.336;2023-04-10T10:38:49;99178.69;;;16.06;nan
26376;BME280;30544;42.196;24.336;2023-04-10T10:41:23;99173.63;;;16.18;nan
26376;BME280;30544;42.196;24.336;2023-04-10T10:43:54;99175.00;;;16.21;nan
26376;BME280;30544;42.196;24.336;2023-04-10T10:46:34;99162.31;;;16.44;nan
26376;BME280;30544;42.196;24.336;2023-04-10T10:49:04;99161.84;;;16.32;nan
26376;BME280;30544;42.196;24.336;2023-04-10T10:51:45;99164.38;;;16.23;nan
26376;BME280;30544;42.196;24.336;2023-04-10T10:54:28;99152.75;;;16.55;nan
26376;BME280;30544;42.196;24.336;2023-04-10T10:56:55;99154.91;;;16.73;nan
26376;BME280;30544;42.196;24.336;2023-04-10T10:59:53;99159.88;;;16.87;nan
26376;BME280;30544;42.196;24.336;2023-04-10T11:02:21;99151.34;;;17.02;nan
26376;BME280;30544;42.196;24.336;2023-04-10T11:04:50;99157.28;;;17.29;nan
26376;BME280;30544;42.196;24.336;2023-04-10T11:07:16;99148.44;;;17.12;nan
26376;BME280;30544;42.196;24.336;2023-04-10T11:09:50;99153.53;;;16.66;nan
26376;BME280;30544;42.196;24.336;2023-04-10T11:12:20;99148.03;;;16.95;nan
26376;BME280;30544;42.196;24.336;2023-04-10T11:14:56;99142.47;;;16.90;nan
26376;BME280;30544;42.196;24.336;2023-04-10T11:17:46;99155.19;;;16.72;nan
26376;BME280;30544;42.196;24.336;2023-04-10T11:20:15;99153.03;;;16.53;nan
26376;BME280;30544;42.196;24.336;2023-04-10T11:23:07;99151.75;;;16.25;nan
26376;BME280;30544;42.196;24.336;2023-04-10T11:25:48;99149.59;;;16.07;nan
26376;BME280;30544;42.196;24.336;2023-04-10T11:28:35;99154.69;;;16.00;nan
26376;BME280;30544;42.196;24.336;2023-04-10T11:31:18;99142.34;;;16.06;nan
26376;BME280;30544;42.196;24.336;2023-04-10T11:33:46;99153.53;;;16.06;nan
26376;BME280;30544;42.196;24.336;2023-04-10T11:36:15;99150.78;;;15.96;nan
26376;BME280;30544;42.196;24.336;2023-04-10T11:38:58;99152.94;;;16.09;nan
26376;BME280;30544;42.196;24.336;2023-04-10T11:41:29;99148.81;;;15.97;nan
26376;BME280;30544;42.196;24.336;2023-04-10T11:43:57;99153.28;;;15.98;nan
26376;BME280;30544;42.196;24.336;2023-04-10T11:46:23;99150.22;;;15.89;nan
26376;BME280;30544;42.196;24.336;2023-04-10T11:48:54;99151.38;;;15.73;nan
26376;BME280;30544;42.196;24.336;2023-04-10T11:51:23;99151.09;;;15.79;nan
26376;BME280;30544;42.196;24.336;2023-04-10T11:54:03;99147.41;;;15.99;nan
26376;BME280;30544;42.196;24.336;2023-04-10T11:56:30;99139.22;;;16.18;nan
26376;BME280;30544;42.196;24.336;2023-04-10T11:58:57;99143.63;;;16.29;nan
26376;BME280;30544;42.196;24.336;2023-04-10T12:01:24;99140.56;;;16.31;nan
26376;BME280;30544;42.196;24.336;2023-04-10T12:03:51;99138.56;;;16.36;nan
26376;BME280;30544;42.196;24.336;2023-04-10T12:06:18;99126.22;;;16.42;nan
26376;BME280;30544;42.196;24.336;2023-04-10T12:08:47;99127.91;;;16.38;nan
26376;BME280;30544;42.196;24.336;2023-04-10T12:11:17;99123.66;;;15.91;nan
26376;BME280;30544;42.196;24.336;2023-04-10T12:13:44;99123.44;;;16.37;nan
26376;BME280;30544;42.196;24.336;2023-04-10T12:16:11;99108.47;;;16.67;nan
26376;BME280;30544;42.196;24.336;2023-04-10T12:18:38;99109.75;;;17.19;nan
26376;BME280;30544;42.196;24.336;2023-04-10T12:21:06;99109.09;;;17.56;nan
26376;BME280;30544;42.196;24.336;2023-04-10T12:23:35;99114.81;;;17.75;nan
26376;BME280;30544;42.196;24.336;2023-04-10T12:26:21;99114.59;;;17.71;nan
26376;BME280;30544;42.196;24.336;2023-04-10T12:28:50;99101.66;;;17.99;nan
26376;BME280;30544;42.196;24.336;2023-04-10T12:31:18;99099.41;;;18.20;nan
26376;BME280;30544;42.196;24.336;2023-04-10T12:33:52;99103.34;;;18.19;nan
26376;BME280;30544;42.196;24.336;2023-04-10T12:36:22;99092.53;;;18.31;nan
26376;BME280;30544;42.196;24.336;2023-04-10T12:38:51;99093.69;;;18.49;nan
26376;BME280;30544;42.196;24.336;2023-04-10T12:41:23;99095.91;;;18.71;nan
26376;BME280;30544;42.196;24.336;2023-04-10T12:43:51;99090.50;;;18.93;nan
26376;BME280;30544;42.196;24.336;2023-04-10T12:46:24;99089.06;;;18.77;nan
26376;BME280;30544;42.196;24.336;2023-04-10T12:48:51;99085.78;;;19.08;nan
26376;BME280;30544;42.196;24.336;2023-04-10T12:51:17;99084.25;;;18.97;nan
26376;BME280;30544;42.196;24.336;2023-04-10T12:53:45;99075.81;;;18.83;nan
26376;BME280;30544;42.196;24.336;2023-04-10T12:56:12;99076.78;;;18.73;nan
26376;BME280;30544;42.196;24.336;2023-04-10T12:58:40;99065.16;;;18.99;nan
26376;BME280;30544;42.196;24.336;2023-04-10T13:01:08;99078.59;;;18.83;nan
26376;BME280;30544;42.196;24.336;2023-04-10T13:03:36;99071.59;;;18.43;nan
26376;BME280;30544;42.196;24.336;2023-04-10T13:06:04;99058.75;;;18.18;nan
26376;BME280;30544;42.196;24.336;2023-04-10T13:08:31;99069.59;;;17.82;nan
26376;BME280;30544;42.196;24.336;2023-04-10T13:10:58;99047.84;;;18.16;nan
26376;BME280;30544;42.196;24.336;2023-04-10T13:13:28;99051.69;;;18.20;nan
26376;BME280;30544;42.196;24.336;2023-04-10T13:15:57;99044.94;;;18.21;nan
26376;BME280;30544;42.196;24.336;2023-04-10T13:18:24;99048.72;;;18.30;nan